Terminal Aerodrome Forecast
Issued by NWS

Home | Current Version | Previous Version | Graphics & Text | Print | Product List | Glossary On
Versions: 1 2 3 4 5 6 7 8 9 10 11 12 13 14 15 16 17 18 19
311
FTUS43 KICT 280520
TAFHUT
TAF
KHUT 280520Z 2806/2906 29009KT P6SM SKC
     FM282200 04006KT P6SM SCT250
     FM290000 08007KT P6SM SCT250
     FM290300 05006KT P6SM BKN100=

USA.gov is the U.S. government's official web portal to all federal, state and local government web resources and services.